createdAt,value
2017-09-08T00:00:32.145Z,57.80
2017-09-08T00:03:00.465Z,57.80
2017-09-08T00:05:28.765Z,57.80
2017-09-08T00:07:57.090Z,57.90
2017-09-08T00:10:25.385Z,58.00
2017-09-08T00:12:53.750Z,57.90
2017-09-08T00:15:22.045Z,58.20
2017-09-08T00:17:50.353Z,58.50
2017-09-08T00:20:18.689Z,58.80
2017-09-08T00:22:46.994Z,58.70
2017-09-08T00:25:15.331Z,59.20
2017-09-08T00:27:44.327Z,59.70
2017-09-08T00:30:12.657Z,59.30
2017-09-08T00:32:40.984Z,59.10
2017-09-08T00:35:10.185Z,58.90
2017-09-08T00:37:38.536Z,58.90
2017-09-08T00:40:06.832Z,58.90
2017-09-08T00:42:35.166Z,59.00
2017-09-08T00:45:03.472Z,59.10
2017-09-08T00:47:31.794Z,59.40
2017-09-08T00:50:00.111Z,59.70
2017-09-08T00:52:28.409Z,59.60
2017-09-08T00:54:56.736Z,59.20
2017-09-08T00:57:25.039Z,59.30
2017-09-08T00:59:53.333Z,59.30
2017-09-08T01:02:21.653Z,59.40
2017-09-08T01:04:49.977Z,59.90
2017-09-08T01:07:18.309Z,59.80
2017-09-08T01:09:46.614Z,60.00
2017-09-08T01:12:14.949Z,60.30
2017-09-08T01:14:43.245Z,60.70
2017-09-08T01:17:11.564Z,61.20
2017-09-08T01:19:39.876Z,61.40
2017-09-08T01:22:08.199Z,61.90
2017-09-08T01:24:36.505Z,62.10
2017-09-08T01:27:04.873Z,61.80
2017-09-08T01:29:33.174Z,62.20
2017-09-08T01:32:01.473Z,62.40
2017-09-08T01:34:29.864Z,62.20
2017-09-08T01:36:58.173Z,62.80
2017-09-08T01:39:26.520Z,63.10
2017-09-08T01:41:54.822Z,62.90
2017-09-08T01:44:23.152Z,63.00
2017-09-08T01:46:51.492Z,63.30
2017-09-08T01:49:19.789Z,63.10
2017-09-08T01:51:48.074Z,63.20
2017-09-08T01:54:16.414Z,63.70
2017-09-08T01:56:44.701Z,64.20
2017-09-08T01:59:13.000Z,64.20
2017-09-08T02:01:42.036Z,64.20
2017-09-08T02:04:10.435Z,65.00
2017-09-08T02:06:38.796Z,64.60
2017-09-08T02:09:07.117Z,64.40
2017-09-08T02:11:35.437Z,64.40
2017-09-08T02:14:03.852Z,64.90
2017-09-08T02:16:32.233Z,65.30
2017-09-08T02:19:00.532Z,65.30
2017-09-08T02:21:35.387Z,64.90
2017-09-08T02:24:03.756Z,65.40
2017-09-08T02:26:32.081Z,65.80
2017-09-08T02:29:00.377Z,65.00
2017-09-08T02:31:28.707Z,64.80
2017-09-08T02:33:57.024Z,65.30
2017-09-08T02:36:25.352Z,65.70
2017-09-08T02:38:53.657Z,66.00
2017-09-08T02:41:22.184Z,65.40
2017-09-08T02:43:50.523Z,65.70
2017-09-08T02:46:18.816Z,65.60
2017-09-08T02:48:47.110Z,65.50
2017-09-08T02:51:15.449Z,65.60
2017-09-08T02:53:43.781Z,66.40
2017-09-08T02:56:12.095Z,66.10
2017-09-08T02:58:40.399Z,66.10
2017-09-08T03:01:08.714Z,66.60
2017-09-08T03:03:37.042Z,66.10
2017-09-08T03:06:05.666Z,65.70
2017-09-08T03:08:33.957Z,66.40
2017-09-08T03:11:02.289Z,65.70
2017-09-08T03:13:30.625Z,65.70
2017-09-08T03:15:58.981Z,65.80
2017-09-08T03:18:27.308Z,65.80
2017-09-08T03:20:55.602Z,65.90
2017-09-08T03:23:23.952Z,66.00
2017-09-08T03:25:52.977Z,65.30
2017-09-08T03:28:21.308Z,65.60
2017-09-08T03:30:49.646Z,65.30
2017-09-08T03:33:17.942Z,65.60
2017-09-08T03:35:46.276Z,65.40
2017-09-08T03:38:14.565Z,64.60
2017-09-08T03:40:42.879Z,65.20
2017-09-08T03:43:11.266Z,65.40
2017-09-08T03:45:39.562Z,65.90
2017-09-08T03:48:08.471Z,65.70
2017-09-08T03:50:36.795Z,66.00
2017-09-08T03:53:05.605Z,66.00
2017-09-08T03:55:33.925Z,66.40
2017-09-08T03:58:02.244Z,66.00
2017-09-08T04:00:30.546Z,66.00
2017-09-08T04:02:58.876Z,66.20
2017-09-08T04:05:27.197Z,66.60
2017-09-08T04:07:56.291Z,66.90
2017-09-08T04:10:24.599Z,66.90
2017-09-08T04:12:52.944Z,67.20
2017-09-08T04:15:21.262Z,67.80
2017-09-08T04:17:49.909Z,67.90
2017-09-08T04:20:18.255Z,68.30
2017-09-08T04:22:46.557Z,67.50
2017-09-08T04:25:14.950Z,67.30
2017-09-08T04:27:44.052Z,67.10
2017-09-08T04:30:12.337Z,67.00
2017-09-08T04:32:41.397Z,67.20
2017-09-08T04:35:10.287Z,67.50
2017-09-08T04:37:38.613Z,67.90
2017-09-08T04:40:07.123Z,67.60
2017-09-08T04:42:35.458Z,68.00
2017-09-08T04:45:03.826Z,68.10
2017-09-08T04:47:32.125Z,67.90
2017-09-08T04:50:00.413Z,67.10
2017-09-08T04:52:28.731Z,66.50
2017-09-08T04:54:57.045Z,67.40
2017-09-08T04:57:25.375Z,66.70
2017-09-08T04:59:53.667Z,66.70
2017-09-08T05:02:21.974Z,66.60
2017-09-08T05:04:50.369Z,66.80
2017-09-08T05:07:18.730Z,67.50
2017-09-08T05:09:47.049Z,68.00
2017-09-08T05:12:15.366Z,69.10
2017-09-08T05:14:43.682Z,68.50
2017-09-08T05:17:11.978Z,69.00
2017-09-08T05:19:40.368Z,68.50
2017-09-08T05:22:08.918Z,68.10
2017-09-08T05:24:37.240Z,67.80
2017-09-08T05:27:05.597Z,67.90
2017-09-08T05:29:33.907Z,68.00
2017-09-08T05:32:02.209Z,67.60
2017-09-08T05:34:30.549Z,67.40
2017-09-08T05:36:58.837Z,67.50
2017-09-08T05:39:27.127Z,67.30
2017-09-08T05:41:55.611Z,67.00
2017-09-08T05:44:23.909Z,66.90
2017-09-08T05:46:52.218Z,67.00
2017-09-08T05:49:20.541Z,66.70
2017-09-08T05:51:48.834Z,66.90
2017-09-08T05:54:18.676Z,66.70
2017-09-08T05:56:47.010Z,67.40
2017-09-08T05:59:15.323Z,67.40
2017-09-08T06:01:43.618Z,66.90
2017-09-08T06:04:12.037Z,67.00
2017-09-08T06:06:40.367Z,65.70
2017-09-08T06:09:09.679Z,65.10
2017-09-08T06:11:38.196Z,64.80
2017-09-08T06:14:06.724Z,65.00
2017-09-08T06:16:35.136Z,64.30
2017-09-08T06:19:03.429Z,63.70
2017-09-08T06:21:31.791Z,62.30
2017-09-08T06:24:00.110Z,62.40
2017-09-08T06:26:28.406Z,62.50
2017-09-08T06:28:56.745Z,62.60
2017-09-08T06:31:25.069Z,61.50
2017-09-08T06:33:53.410Z,59.90
2017-09-08T06:36:21.719Z,59.70
2017-09-08T06:38:50.076Z,59.30
2017-09-08T06:41:18.425Z,58.90
2017-09-08T06:43:46.730Z,59.40
2017-09-08T06:46:15.022Z,59.60
2017-09-08T06:48:43.396Z,59.50
2017-09-08T06:51:11.729Z,59.50
2017-09-08T06:53:40.083Z,59.20
2017-09-08T06:56:08.382Z,57.60
2017-09-08T06:58:36.719Z,56.50
2017-09-08T07:01:05.030Z,55.80
2017-09-08T07:03:33.333Z,54.90
2017-09-08T07:06:08.164Z,55.20
2017-09-08T07:08:38.534Z,53.10
2017-09-08T07:11:07.923Z,52.60
2017-09-08T07:13:36.248Z,50.50
2017-09-08T07:16:04.653Z,48.90
2017-09-08T07:18:33.162Z,47.80
2017-09-08T07:21:01.490Z,47.40
2017-09-08T07:23:29.772Z,47.50
2017-09-08T07:25:58.085Z,46.30
2017-09-08T07:28:26.388Z,46.40
2017-09-08T07:30:54.746Z,45.90
2017-09-08T07:33:23.045Z,45.60
2017-09-08T07:35:51.345Z,45.10
2017-09-08T07:38:19.678Z,46.10
2017-09-08T07:40:47.997Z,45.90
2017-09-08T07:43:16.309Z,43.60
2017-09-08T07:45:44.646Z,44.30
2017-09-08T07:48:12.962Z,43.50
2017-09-08T07:50:41.276Z,43.40
2017-09-08T07:53:09.693Z,42.80
2017-09-08T07:55:39.495Z,43.90
2017-09-08T07:58:08.896Z,42.30
2017-09-08T08:00:37.185Z,41.40
2017-09-08T08:03:05.749Z,41.40
2017-09-08T08:05:34.053Z,40.90
2017-09-08T08:08:02.347Z,40.50
2017-09-08T08:10:30.683Z,40.20
2017-09-08T08:12:59.010Z,40.80
2017-09-08T08:15:28.109Z,43.60
2017-09-08T08:17:56.402Z,43.60
2017-09-08T08:20:24.707Z,44.30
2017-09-08T08:22:53.141Z,44.30
2017-09-08T08:25:21.421Z,43.80
2017-09-08T08:27:49.712Z,44.30
2017-09-08T08:30:18.026Z,44.50
2017-09-08T08:32:46.340Z,44.70
2017-09-08T08:35:14.630Z,44.90
2017-09-08T08:37:42.950Z,46.60
2017-09-08T08:40:11.386Z,45.50
2017-09-08T08:42:40.496Z,45.20
2017-09-08T08:45:08.856Z,44.30
2017-09-08T08:47:37.189Z,43.70
2017-09-08T08:50:05.477Z,43.10
2017-09-08T08:52:33.950Z,44.20
2017-09-08T08:55:02.251Z,42.30
2017-09-08T08:57:30.549Z,40.90
2017-09-08T08:59:58.889Z,40.80
2017-09-08T09:02:27.186Z,42.50
2017-09-08T09:04:55.505Z,41.10
2017-09-08T09:07:23.822Z,41.00
2017-09-08T09:09:52.169Z,41.60
2017-09-08T09:12:20.461Z,41.80
2017-09-08T09:14:48.777Z,42.80
2017-09-08T09:17:17.222Z,43.60
2017-09-08T09:19:46.190Z,43.70
2017-09-08T09:22:14.521Z,44.50
2017-09-08T09:24:42.963Z,44.30
2017-09-08T09:27:11.277Z,44.20
2017-09-08T09:29:39.581Z,44.10
2017-09-08T09:32:07.992Z,44.30
2017-09-08T09:34:36.305Z,44.90
2017-09-08T09:37:04.633Z,44.00
2017-09-08T09:39:32.920Z,43.60
2017-09-08T09:42:01.595Z,44.40
2017-09-08T09:44:29.908Z,43.50
2017-09-08T09:46:58.201Z,44.50
2017-09-08T09:49:27.292Z,45.70
2017-09-08T09:51:55.610Z,45.70
2017-09-08T09:54:23.942Z,45.40
2017-09-08T09:56:52.233Z,46.80
2017-09-08T09:59:20.528Z,46.20
2017-09-08T10:01:48.898Z,45.70
2017-09-08T10:04:18.126Z,46.30
2017-09-08T10:06:46.538Z,46.60
2017-09-08T10:09:14.877Z,47.50
2017-09-08T10:11:43.214Z,47.60
2017-09-08T10:14:11.648Z,47.50
2017-09-08T10:16:40.015Z,48.50
2017-09-08T10:19:08.319Z,49.10
2017-09-08T10:21:36.613Z,49.70
2017-09-08T10:24:04.941Z,49.50
2017-09-08T10:26:33.249Z,49.90
2017-09-08T10:29:01.541Z,50.00
2017-09-08T10:31:29.865Z,50.50
2017-09-08T10:33:58.181Z,51.50
2017-09-08T10:36:26.490Z,51.60
2017-09-08T10:38:54.875Z,51.30
2017-09-08T10:41:23.174Z,51.60
2017-09-08T10:43:51.478Z,52.40
2017-09-08T10:46:19.996Z,52.30
2017-09-08T10:48:48.294Z,52.60
2017-09-08T10:51:16.602Z,53.10
2017-09-08T10:53:44.958Z,53.00
2017-09-08T10:56:13.309Z,53.40
2017-09-08T10:58:41.632Z,53.00
2017-09-08T11:01:09.954Z,52.90
2017-09-08T11:03:39.073Z,52.00
2017-09-08T11:06:07.490Z,51.70
2017-09-08T11:08:35.905Z,51.50
2017-09-08T11:11:04.329Z,50.60
2017-09-08T11:13:32.626Z,50.60
2017-09-08T11:16:01.041Z,50.40
2017-09-08T11:18:29.396Z,49.80
2017-09-08T11:20:57.761Z,49.90
2017-09-08T11:23:26.073Z,50.00
2017-09-08T11:25:54.353Z,49.30
2017-09-08T11:28:22.685Z,49.00
2017-09-08T11:30:51.728Z,49.60
2017-09-08T11:33:26.305Z,49.70
2017-09-08T11:36:00.297Z,49.40
2017-09-08T11:38:28.625Z,49.20
2017-09-08T11:40:56.952Z,48.70
2017-09-08T11:43:25.289Z,48.90
2017-09-08T11:45:53.610Z,48.60
2017-09-08T11:48:21.915Z,49.50
2017-09-08T11:50:50.834Z,47.70
2017-09-08T11:53:19.901Z,48.10
2017-09-08T11:55:48.189Z,46.50
2017-09-08T11:58:16.520Z,46.50
2017-09-08T12:00:44.809Z,45.60
2017-09-08T12:03:13.098Z,44.70
2017-09-08T12:05:41.418Z,44.80
2017-09-08T12:08:09.729Z,46.20
2017-09-08T12:10:38.877Z,46.90
2017-09-08T12:13:07.810Z,46.90
2017-09-08T12:15:36.107Z,47.00
2017-09-08T12:18:04.512Z,47.80
2017-09-08T12:20:32.847Z,48.60
2017-09-08T12:23:01.152Z,48.80
2017-09-08T12:25:29.509Z,49.10
2017-09-08T12:27:57.796Z,49.90
2017-09-08T12:30:27.910Z,50.00
2017-09-08T12:32:57.296Z,50.50
2017-09-08T12:35:25.590Z,50.70
2017-09-08T12:37:57.646Z,50.70
2017-09-08T12:40:25.974Z,51.30
2017-09-08T12:42:54.351Z,52.00
2017-09-08T12:45:22.717Z,51.70
2017-09-08T12:47:51.892Z,51.60
2017-09-08T12:50:20.769Z,51.90
2017-09-08T12:52:49.317Z,51.70
2017-09-08T12:55:18.338Z,52.50
2017-09-08T12:57:46.693Z,51.70
2017-09-08T13:00:15.015Z,51.70
2017-09-08T13:02:43.336Z,51.30
2017-09-08T13:05:11.653Z,51.30
2017-09-08T13:07:40.053Z,51.60
2017-09-08T13:10:08.976Z,52.20
2017-09-08T13:12:38.153Z,51.80
2017-09-08T13:15:06.726Z,52.50
2017-09-08T13:17:35.862Z,52.60
2017-09-08T13:20:05.972Z,52.80
2017-09-08T13:22:36.482Z,52.10
2017-09-08T13:25:06.405Z,52.30
2017-09-08T13:27:37.979Z,52.20
2017-09-08T13:30:08.220Z,52.30
2017-09-08T13:32:36.708Z,52.90
2017-09-08T13:35:15.700Z,53.10
2017-09-08T13:37:44.276Z,52.20
2017-09-08T13:40:12.799Z,51.90
2017-09-08T13:42:46.278Z,51.70
2017-09-08T13:45:15.155Z,52.30
2017-09-08T13:47:43.501Z,51.70
2017-09-08T13:50:12.043Z,51.20
2017-09-08T13:52:40.354Z,50.80
2017-09-08T13:55:08.723Z,51.10
2017-09-08T13:57:37.910Z,50.60
2017-09-08T14:00:08.502Z,50.00
2017-09-08T14:02:38.276Z,50.60
2017-09-08T14:05:07.303Z,50.50
2017-09-08T14:07:36.445Z,50.70
2017-09-08T14:10:06.654Z,50.20
2017-09-08T14:12:35.837Z,49.70
2017-09-08T14:15:11.995Z,50.00
2017-09-08T14:17:45.064Z,49.80
2017-09-08T14:20:14.223Z,50.10
2017-09-08T14:22:42.513Z,50.10
2017-09-08T14:25:10.861Z,49.90
2017-09-08T14:27:39.868Z,50.20
2017-09-08T14:30:08.275Z,50.10
2017-09-08T14:32:36.646Z,49.80
2017-09-08T14:35:05.782Z,50.10
2017-09-08T14:37:38.002Z,50.50
2017-09-08T14:40:06.346Z,50.40
2017-09-08T14:42:34.955Z,50.50
2017-09-08T14:45:06.842Z,50.90
2017-09-08T14:47:35.183Z,51.10
2017-09-08T14:50:03.468Z,51.20
2017-09-08T14:52:31.840Z,50.40
2017-09-08T14:55:00.135Z,50.50
2017-09-08T14:57:28.478Z,51.00
2017-09-08T14:59:56.784Z,51.60
2017-09-08T15:02:25.215Z,51.30
2017-09-08T15:04:53.540Z,51.20
2017-09-08T15:07:21.844Z,51.40
2017-09-08T15:09:50.193Z,50.90
2017-09-08T15:12:19.691Z,51.00
2017-09-08T15:14:48.029Z,51.30
2017-09-08T15:17:16.364Z,50.60
2017-09-08T15:19:48.421Z,50.50
2017-09-08T15:22:16.785Z,50.90
2017-09-08T15:24:45.108Z,51.00
2017-09-08T15:27:13.421Z,51.20
2017-09-08T15:29:41.748Z,51.20
2017-09-08T15:32:10.072Z,51.00
2017-09-08T15:34:38.427Z,50.60
2017-09-08T15:37:06.893Z,50.60
2017-09-08T15:39:36.159Z,51.20
2017-09-08T15:42:04.519Z,50.80
2017-09-08T15:44:32.991Z,50.80
2017-09-08T15:47:01.328Z,50.60
2017-09-08T15:49:30.981Z,50.80
2017-09-08T15:51:59.315Z,50.10
2017-09-08T15:54:27.680Z,50.40
2017-09-08T15:56:55.969Z,50.40
2017-09-08T15:59:24.298Z,50.90
2017-09-08T16:01:53.739Z,50.70
2017-09-08T16:04:22.162Z,50.50
2017-09-08T16:06:50.473Z,50.50
2017-09-08T16:09:19.614Z,51.50
2017-09-08T16:11:47.940Z,50.80
2017-09-08T16:14:16.239Z,50.70
2017-09-08T16:16:45.720Z,50.80
2017-09-08T16:19:15.049Z,51.00
2017-09-08T16:21:43.407Z,51.10
2017-09-08T16:24:13.352Z,51.70
2017-09-08T16:26:41.709Z,51.80
2017-09-08T16:29:11.853Z,51.80
2017-09-08T16:31:41.325Z,51.40
2017-09-08T16:34:10.782Z,51.20
2017-09-08T16:36:39.098Z,51.20
2017-09-08T16:39:07.426Z,51.40
2017-09-08T16:41:36.660Z,50.80
2017-09-08T16:44:05.668Z,51.20
2017-09-08T16:46:34.054Z,51.80
2017-09-08T16:49:02.342Z,51.60
2017-09-08T16:51:31.407Z,52.50
2017-09-08T16:53:59.696Z,51.60
2017-09-08T16:56:27.983Z,51.40
2017-09-08T16:58:56.491Z,51.90
2017-09-08T17:01:24.787Z,51.40
2017-09-08T17:03:53.871Z,52.90
2017-09-08T17:06:22.164Z,52.30
2017-09-08T17:08:50.458Z,52.40
2017-09-08T17:11:19.507Z,52.50
2017-09-08T17:13:49.503Z,52.20
2017-09-08T17:16:20.650Z,52.40
2017-09-08T17:18:49.840Z,52.50
2017-09-08T17:21:22.446Z,52.60
2017-09-08T17:23:50.937Z,52.70
2017-09-08T17:26:19.283Z,53.20
2017-09-08T17:28:47.560Z,53.40
2017-09-08T17:31:28.866Z,54.40
2017-09-08T17:33:57.184Z,59.20
2017-09-08T17:36:35.013Z,69.10
2017-09-08T17:39:04.038Z,74.70
2017-09-08T17:41:32.387Z,67.10
2017-09-08T17:44:00.703Z,76.30
2017-09-08T17:46:28.998Z,75.90
2017-09-08T17:48:57.329Z,69.70
2017-09-08T17:51:25.649Z,73.90
2017-09-08T17:53:53.985Z,73.00
2017-09-08T17:56:22.349Z,69.70
2017-09-08T17:58:50.809Z,67.60
2017-09-08T18:01:20.713Z,72.60
2017-09-08T18:03:49.046Z,71.80
2017-09-08T18:06:18.088Z,66.70
2017-09-08T18:08:46.400Z,68.80
2017-09-08T18:11:14.732Z,67.30
2017-09-08T18:13:43.034Z,66.10
2017-09-08T18:16:11.333Z,66.50
2017-09-08T18:18:39.673Z,64.70
2017-09-08T18:21:07.964Z,64.60
2017-09-08T18:23:36.296Z,64.20
2017-09-08T18:26:04.629Z,63.00
2017-09-08T18:28:32.930Z,63.10
2017-09-08T18:31:01.873Z,63.10
2017-09-08T18:33:30.170Z,62.80
2017-09-08T18:35:58.461Z,63.00
2017-09-08T18:38:26.801Z,63.20
2017-09-08T18:40:55.093Z,63.20
2017-09-08T18:43:23.414Z,63.00
2017-09-08T18:45:51.733Z,63.30
2017-09-08T18:48:20.055Z,63.00
2017-09-08T18:50:48.389Z,62.00
2017-09-08T18:53:16.706Z,62.70
2017-09-08T18:55:46.603Z,61.10
2017-09-08T18:58:14.958Z,61.90
2017-09-08T19:00:43.298Z,62.50
2017-09-08T19:03:11.613Z,61.90
2017-09-08T19:05:40.058Z,62.50
2017-09-08T19:08:08.353Z,62.50
2017-09-08T19:10:36.746Z,61.80
2017-09-08T19:13:05.768Z,62.40
2017-09-08T19:15:34.087Z,62.30
2017-09-08T19:18:02.401Z,62.80
2017-09-08T19:20:30.694Z,61.80
2017-09-08T19:22:59.018Z,61.80
2017-09-08T19:25:27.306Z,61.80
2017-09-08T19:27:55.657Z,62.00
2017-09-08T19:30:23.964Z,62.10
2017-09-08T19:32:53.413Z,61.80
2017-09-08T19:35:21.740Z,62.40
2017-09-08T19:37:50.044Z,61.70
2017-09-08T19:40:18.406Z,62.30
2017-09-08T19:42:46.695Z,62.80
2017-09-08T19:45:15.086Z,62.00
2017-09-08T19:47:43.418Z,61.50
2017-09-08T19:50:11.705Z,61.60
2017-09-08T19:52:40.041Z,60.40
2017-09-08T19:55:08.410Z,60.30
2017-09-08T19:57:36.716Z,59.70
2017-09-08T20:00:05.117Z,59.20
2017-09-08T20:02:34.376Z,59.60
2017-09-08T20:05:03.281Z,59.50
2017-09-08T20:07:31.670Z,59.10
2017-09-08T20:10:01.088Z,59.60
2017-09-08T20:12:29.431Z,59.40
2017-09-08T20:14:57.741Z,58.50
2017-09-08T20:17:26.079Z,58.90
2017-09-08T20:19:55.142Z,58.60
2017-09-08T20:22:23.500Z,58.10
2017-09-08T20:24:52.385Z,58.10
2017-09-08T20:27:20.714Z,58.00
2017-09-08T20:29:49.114Z,58.20
2017-09-08T20:32:17.445Z,58.80
2017-09-08T20:34:45.958Z,58.90
2017-09-08T20:37:15.165Z,58.40
2017-09-08T20:39:44.892Z,58.40
2017-09-08T20:42:13.194Z,58.30
2017-09-08T20:44:41.962Z,58.00
2017-09-08T20:47:10.284Z,58.00
2017-09-08T20:49:38.864Z,58.50
2017-09-08T20:52:07.236Z,58.60
2017-09-08T20:54:35.662Z,58.50
2017-09-08T20:57:05.239Z,58.60
2017-09-08T20:59:33.556Z,58.90
2017-09-08T21:02:02.417Z,58.90
2017-09-08T21:04:31.086Z,58.90
2017-09-08T21:06:59.378Z,59.10
2017-09-08T21:09:27.704Z,58.80
2017-09-08T21:11:56.045Z,58.30
2017-09-08T21:14:24.609Z,58.30
2017-09-08T21:16:53.098Z,57.70
2017-09-08T21:19:21.906Z,58.00
2017-09-08T21:21:50.278Z,57.40
2017-09-08T21:24:18.571Z,57.70
2017-09-08T21:26:46.898Z,57.40
2017-09-08T21:29:15.194Z,57.40
2017-09-08T21:31:43.480Z,57.20
2017-09-08T21:34:11.800Z,57.40
2017-09-08T21:36:40.123Z,57.40
2017-09-08T21:39:08.445Z,57.40
2017-09-08T21:41:36.812Z,57.60
2017-09-08T21:44:05.420Z,57.40
2017-09-08T21:46:33.738Z,57.30
2017-09-08T21:49:02.062Z,57.30
2017-09-08T21:51:30.399Z,57.40
2017-09-08T21:53:58.690Z,57.40
2017-09-08T21:56:27.010Z,57.50
2017-09-08T21:58:55.332Z,57.20
2017-09-08T22:01:23.625Z,56.90
2017-09-08T22:03:51.929Z,57.20
2017-09-08T22:06:20.291Z,57.20
2017-09-08T22:08:48.774Z,57.20
2017-09-08T22:11:17.107Z,56.80
2017-09-08T22:13:46.330Z,56.70
2017-09-08T22:16:14.776Z,56.60
2017-09-08T22:18:43.207Z,56.30
2017-09-08T22:21:11.615Z,56.40
2017-09-08T22:23:39.970Z,56.20
2017-09-08T22:26:08.386Z,56.40
2017-09-08T22:28:36.697Z,56.00
2017-09-08T22:31:05.042Z,56.10
2017-09-08T22:33:33.334Z,56.10
2017-09-08T22:36:02.444Z,55.70
2017-09-08T22:38:30.768Z,55.70
2017-09-08T22:40:59.097Z,56.10
2017-09-08T22:43:27.401Z,56.20
2017-09-08T22:45:55.717Z,55.80
2017-09-08T22:48:24.045Z,56.00
2017-09-08T22:50:52.346Z,56.10
2017-09-08T22:53:20.673Z,56.90
2017-09-08T22:55:49.000Z,56.60
2017-09-08T22:58:17.976Z,56.30
2017-09-08T23:00:46.296Z,56.20
2017-09-08T23:03:14.599Z,56.00
2017-09-08T23:05:42.896Z,56.50
2017-09-08T23:08:11.217Z,56.60
2017-09-08T23:10:39.536Z,56.20
2017-09-08T23:13:07.936Z,56.30
2017-09-08T23:15:36.427Z,56.40
2017-09-08T23:18:04.751Z,56.20
2017-09-08T23:20:33.103Z,55.80
2017-09-08T23:23:01.622Z,55.80
2017-09-08T23:25:30.223Z,56.00
2017-09-08T23:27:58.514Z,56.10
2017-09-08T23:30:26.804Z,56.40
2017-09-08T23:32:55.124Z,56.40
2017-09-08T23:35:23.986Z,56.40
2017-09-08T23:37:52.301Z,56.30
2017-09-08T23:40:20.589Z,56.40
2017-09-08T23:42:49.074Z,56.40
2017-09-08T23:45:17.360Z,56.60
2017-09-08T23:47:45.657Z,56.40
2017-09-08T23:50:14.749Z,56.50
2017-09-08T23:52:43.046Z,56.50
2017-09-08T23:55:11.374Z,56.80
2017-09-08T23:57:39.668Z,56.70
